sensor_id;sensor_type;location;lat;lon;timestamp;pressure;altitude;pressure_sealevel;temperature;humidity
58821;BME280;70670;52.476;13.334;2024-01-07T00:01:18;101172.78;;;-2.44;78.70
58821;BME280;70670;52.476;13.334;2024-01-07T00:04:00;101164.91;;;-2.46;79.15
58821;BME280;70670;52.476;13.334;2024-01-07T00:06:26;101180.66;;;-2.40;78.42
58821;BME280;70670;52.476;13.334;2024-01-07T00:08:51;101172.81;;;-2.41;78.85
58821;BME280;70670;52.476;13.334;2024-01-07T00:11:17;101179.78;;;-2.40;79.45
58821;BME280;70670;52.476;13.334;2024-01-07T00:13:43;101178.06;;;-2.41;79.66
58821;BME280;70670;52.476;13.334;2024-01-07T00:16:08;101177.16;;;-2.39;79.58
58821;BME280;70670;52.476;13.334;2024-01-07T00:18:34;101181.53;;;-2.44;78.93
58821;BME280;70670;52.476;13.334;2024-01-07T00:21:00;101112.34;;;-2.80;79.02
58821;BME280;70670;52.476;13.334;2024-01-07T00:23:25;101171.88;;;-2.51;78.39
58821;BME280;70670;52.476;13.334;2024-01-07T00:25:51;101184.09;;;-2.52;78.83
58821;BME280;70670;52.476;13.334;2024-01-07T00:28:17;101178.78;;;-2.64;79.44
58821;BME280;70670;52.476;13.334;2024-01-07T00:30:42;101187.50;;;-2.62;79.65
58821;BME280;70670;52.476;13.334;2024-01-07T00:33:08;101191.91;;;-2.61;79.75
58821;BME280;70670;52.476;13.334;2024-01-07T00:35:33;101151.53;;;-2.90;79.04
58821;BME280;70670;52.476;13.334;2024-01-07T00:37:59;101196.22;;;-2.66;79.45
58821;BME280;70670;52.476;13.334;2024-01-07T00:40:25;101213.72;;;-2.62;79.27
58821;BME280;70670;52.476;13.334;2024-01-07T00:42:52;101211.88;;;-2.74;78.44
58821;BME280;70670;52.476;13.334;2024-01-07T00:45:18;101146.13;;;-3.15;78.65
58821;BME280;70670;52.476;13.334;2024-01-07T00:47:44;101231.09;;;-2.75;78.43
58821;BME280;70670;52.476;13.334;2024-01-07T00:50:09;101170.56;;;-3.16;77.79
58821;BME280;70670;52.476;13.334;2024-01-07T00:52:35;101177.59;;;-3.12;78.47
58821;BME280;70670;52.476;13.334;2024-01-07T00:55:04;101219.63;;;-2.90;77.58
58821;BME280;70670;52.476;13.334;2024-01-07T00:57:30;101236.31;;;-2.79;77.67
58821;BME280;70670;52.476;13.334;2024-01-07T00:59:55;101235.41;;;-2.84;77.83
58821;BME280;70670;52.476;13.334;2024-01-07T01:02:21;101255.56;;;-2.77;77.48
58821;BME280;70670;52.476;13.334;2024-01-07T01:04:48;101250.22;;;-2.88;76.82
58821;BME280;70670;52.476;13.334;2024-01-07T01:07:14;101235.31;;;-2.97;77.15
58821;BME280;70670;52.476;13.334;2024-01-07T01:09:39;101254.59;;;-2.85;77.29
58821;BME280;70670;52.476;13.334;2024-01-07T01:12:05;101264.22;;;-2.83;77.54
58821;BME280;70670;52.476;13.334;2024-01-07T01:14:31;101258.09;;;-2.83;77.43
58821;BME280;70670;52.476;13.334;2024-01-07T01:16:57;101259.84;;;-2.82;77.31
58821;BME280;70670;52.476;13.334;2024-01-07T01:19:23;101259.84;;;-2.82;76.63
58821;BME280;70670;52.476;13.334;2024-01-07T01:21:49;101244.00;;;-2.98;76.77
58821;BME280;70670;52.476;13.334;2024-01-07T01:24:15;101265.06;;;-2.85;75.89
58821;BME280;70670;52.476;13.334;2024-01-07T01:26:40;101268.50;;;-2.92;75.56
58821;BME280;70670;52.476;13.334;2024-01-07T01:29:06;101272.00;;;-2.90;76.87
58821;BME280;70670;52.476;13.334;2024-01-07T01:31:32;101279.00;;;-2.89;75.96
58821;BME280;70670;52.476;13.334;2024-01-07T01:33:57;101276.31;;;-3.00;75.24
58821;BME280;70670;52.476;13.334;2024-01-07T01:36:23;101240.22;;;-3.30;74.56
58821;BME280;70670;52.476;13.334;2024-01-07T01:38:49;101290.16;;;-3.10;74.92
58821;BME280;70670;52.476;13.334;2024-01-07T01:41:16;101289.28;;;-3.11;75.06
58821;BME280;70670;52.476;13.334;2024-01-07T01:43:41;101291.03;;;-3.10;75.12
58821;BME280;70670;52.476;13.334;2024-01-07T01:46:07;101291.91;;;-3.09;74.94
58821;BME280;70670;52.476;13.334;2024-01-07T01:48:33;101293.59;;;-3.14;74.33
58821;BME280;70670;52.476;13.334;2024-01-07T01:50:59;101287.47;;;-3.18;74.85
58821;BME280;70670;52.476;13.334;2024-01-07T01:53:25;101296.19;;;-3.19;74.55
58821;BME280;70670;52.476;13.334;2024-01-07T01:55:57;101315.44;;;-3.14;74.51
58821;BME280;70670;52.476;13.334;2024-01-07T01:58:23;101304.09;;;-3.13;75.42
58821;BME280;70670;52.476;13.334;2024-01-07T02:00:50;101309.31;;;-3.16;75.15
58821;BME280;70670;52.476;13.334;2024-01-07T02:03:18;101309.28;;;-3.17;74.65
58821;BME280;70670;52.476;13.334;2024-01-07T02:05:44;101293.53;;;-3.24;74.61
58821;BME280;70670;52.476;13.334;2024-01-07T02:08:10;101300.50;;;-3.24;74.63
58821;BME280;70670;52.476;13.334;2024-01-07T02:10:36;101296.09;;;-3.28;75.05
58821;BME280;70670;52.476;13.334;2024-01-07T02:13:03;101300.38;;;-3.36;74.67
58821;BME280;70670;52.476;13.334;2024-01-07T02:15:29;101308.28;;;-3.30;74.80
58821;BME280;70670;52.476;13.334;2024-01-07T02:17:55;101315.25;;;-3.32;75.06
58821;BME280;70670;52.476;13.334;2024-01-07T02:20:21;101314.34;;;-3.33;74.27
58821;BME280;70670;52.476;13.334;2024-01-07T02:22:46;101246.78;;;-3.72;74.17
58821;BME280;70670;52.476;13.334;2024-01-07T02:25:12;101304.63;;;-3.44;74.30
58821;BME280;70670;52.476;13.334;2024-01-07T02:27:38;101309.88;;;-3.41;73.84
58821;BME280;70670;52.476;13.334;2024-01-07T02:30:04;101311.53;;;-3.50;74.28
58821;BME280;70670;52.476;13.334;2024-01-07T02:32:29;101197.47;;;-4.13;74.88
58821;BME280;70670;52.476;13.334;2024-01-07T02:35:00;101302.72;;;-3.58;74.67
58821;BME280;70670;52.476;13.334;2024-01-07T02:37:26;101317.69;;;-3.46;74.08
58821;BME280;70670;52.476;13.334;2024-01-07T02:39:51;101245.63;;;-3.96;74.15
58821;BME280;70670;52.476;13.334;2024-01-07T02:42:17;101327.19;;;-3.54;74.88
58821;BME280;70670;52.476;13.334;2024-01-07T02:44:43;101316.56;;;-3.68;74.64
58821;BME280;70670;52.476;13.334;2024-01-07T02:47:08;101349.88;;;-3.55;75.22
58821;BME280;70670;52.476;13.334;2024-01-07T02:49:34;101334.06;;;-3.61;74.63
58821;BME280;70670;52.476;13.334;2024-01-07T02:51:59;101349.72;;;-3.67;74.73
58821;BME280;70670;52.476;13.334;2024-01-07T02:54:25;101344.38;;;-3.73;75.10
58821;BME280;70670;52.476;13.334;2024-01-07T02:56:51;101287.34;;;-4.02;75.63
58821;BME280;70670;52.476;13.334;2024-01-07T02:59:16;101350.53;;;-3.69;75.03
58821;BME280;70670;52.476;13.334;2024-01-07T03:01:42;101343.47;;;-3.77;75.27
58821;BME280;70670;52.476;13.334;2024-01-07T03:04:10;101348.69;;;-3.80;75.59
58821;BME280;70670;52.476;13.334;2024-01-07T03:06:35;101231.75;;;-4.54;74.99
58821;BME280;70670;52.476;13.334;2024-01-07T03:09:01;101311.69;;;-4.06;75.45
58821;BME280;70670;52.476;13.334;2024-01-07T03:11:27;101359.97;;;-3.82;75.38
58821;BME280;70670;52.476;13.334;2024-01-07T03:13:53;101337.94;;;-4.00;75.21
58821;BME280;70670;52.476;13.334;2024-01-07T03:16:20;101351.91;;;-3.96;75.38
58821;BME280;70670;52.476;13.334;2024-01-07T03:18:45;101293.94;;;-4.31;74.94
58821;BME280;70670;52.476;13.334;2024-01-07T03:21:21;101360.63;;;-3.97;75.02
58821;BME280;70670;52.476;13.334;2024-01-07T03:23:49;101361.50;;;-3.97;75.43
58821;BME280;70670;52.476;13.334;2024-01-07T03:26:16;101370.13;;;-4.04;75.71
58821;BME280;70670;52.476;13.334;2024-01-07T03:28:42;101374.44;;;-4.06;75.70
58821;BME280;70670;52.476;13.334;2024-01-07T03:31:09;101357.75;;;-4.14;75.48
58821;BME280;70670;52.476;13.334;2024-01-07T03:33:37;101360.25;;;-4.23;74.99
58821;BME280;70670;52.476;13.334;2024-01-07T03:36:07;101371.69;;;-4.15;75.30
58821;BME280;70670;52.476;13.334;2024-01-07T03:38:33;101382.22;;;-4.09;75.54
58821;BME280;70670;52.476;13.334;2024-01-07T03:40:58;101378.69;;;-4.12;75.48
58821;BME280;70670;52.476;13.334;2024-01-07T03:43:24;101391.72;;;-4.15;75.68
58821;BME280;70670;52.476;13.334;2024-01-07T03:45:49;101336.31;;;-4.49;75.18
58821;BME280;70670;52.476;13.334;2024-01-07T03:48:15;101389.13;;;-4.14;75.58
58821;BME280;70670;52.476;13.334;2024-01-07T03:50:41;101394.31;;;-4.17;75.38
58821;BME280;70670;52.476;13.334;2024-01-07T03:53:07;101391.69;;;-4.18;75.19
58821;BME280;70670;52.476;13.334;2024-01-07T03:55:32;101325.66;;;-4.63;75.77
58821;BME280;70670;52.476;13.334;2024-01-07T03:57:58;101403.75;;;-4.25;75.38
58821;BME280;70670;52.476;13.334;2024-01-07T04:00:23;101401.94;;;-4.29;75.53
58821;BME280;70670;52.476;13.334;2024-01-07T04:02:49;101409.94;;;-4.20;75.49
58821;BME280;70670;52.476;13.334;2024-01-07T04:05:15;101423.84;;;-4.21;75.33
58821;BME280;70670;52.476;13.334;2024-01-07T04:07:40;101416.81;;;-4.27;75.04
58821;BME280;70670;52.476;13.334;2024-01-07T04:10:06;101423.78;;;-4.27;74.69
58821;BME280;70670;52.476;13.334;2024-01-07T04:12:32;101349.72;;;-4.79;74.95
58821;BME280;70670;52.476;13.334;2024-01-07T04:14:57;101424.47;;;-4.36;74.94
58821;BME280;70670;52.476;13.334;2024-01-07T04:17:24;101424.53;;;-4.34;75.12
58821;BME280;70670;52.476;13.334;2024-01-07T04:19:49;101437.66;;;-4.28;74.86
58821;BME280;70670;52.476;13.334;2024-01-07T04:22:15;101449.84;;;-4.29;74.24
58821;BME280;70670;52.476;13.334;2024-01-07T04:24:41;101427.94;;;-4.38;74.92
58821;BME280;70670;52.476;13.334;2024-01-07T04:27:07;101439.41;;;-4.30;74.09
58821;BME280;70670;52.476;13.334;2024-01-07T04:29:32;101424.47;;;-4.37;74.56
58821;BME280;70670;52.476;13.334;2024-01-07T04:31:58;101436.72;;;-4.35;74.81
58821;BME280;70670;52.476;13.334;2024-01-07T04:34:24;101440.13;;;-4.39;74.56
58821;BME280;70670;52.476;13.334;2024-01-07T04:36:50;101432.16;;;-4.47;74.30
58821;BME280;70670;52.476;13.334;2024-01-07T04:39:15;101456.81;;;-4.29;73.82
58821;BME280;70670;52.476;13.334;2024-01-07T04:41:41;101440.94;;;-4.41;74.02
58821;BME280;70670;52.476;13.334;2024-01-07T04:44:07;101455.94;;;-4.31;74.06
58821;BME280;70670;52.476;13.334;2024-01-07T04:46:34;101444.50;;;-4.36;74.30
58821;BME280;70670;52.476;13.334;2024-01-07T04:49:00;101373.34;;;-4.73;74.80
58821;BME280;70670;52.476;13.334;2024-01-07T04:51:26;101451.59;;;-4.29;74.47
58821;BME280;70670;52.476;13.334;2024-01-07T04:53:52;101453.25;;;-4.34;74.03
58821;BME280;70670;52.476;13.334;2024-01-07T04:56:18;101451.50;;;-4.35;74.77
58821;BME280;70670;52.476;13.334;2024-01-07T04:58:43;101420.72;;;-4.52;74.45
58821;BME280;70670;52.476;13.334;2024-01-07T05:01:09;101397.91;;;-4.62;73.83
58821;BME280;70670;52.476;13.334;2024-01-07T05:03:34;101457.63;;;-4.32;73.94
58821;BME280;70670;52.476;13.334;2024-01-07T05:06:01;101456.81;;;-4.29;74.07
58821;BME280;70670;52.476;13.334;2024-01-07T05:08:28;101473.31;;;-4.32;73.47
58821;BME280;70670;52.476;13.334;2024-01-07T05:10:53;101460.25;;;-4.33;74.19
58821;BME280;70670;52.476;13.334;2024-01-07T05:13:19;101458.47;;;-4.34;74.19
58821;BME280;70670;52.476;13.334;2024-01-07T05:15:45;101474.22;;;-4.31;73.85
58821;BME280;70670;52.476;13.334;2024-01-07T05:18:12;101485.50;;;-4.32;74.38
58821;BME280;70670;52.476;13.334;2024-01-07T05:20:37;101438.16;;;-4.51;74.74
58821;BME280;70670;52.476;13.334;2024-01-07T05:23:03;101476.84;;;-4.30;74.70
58821;BME280;70670;52.476;13.334;2024-01-07T05:25:29;101474.22;;;-4.31;74.11
58821;BME280;70670;52.476;13.334;2024-01-07T05:27:55;101486.38;;;-4.33;74.34
58821;BME280;70670;52.476;13.334;2024-01-07T05:30:21;101428.31;;;-4.65;74.38
58821;BME280;70670;52.476;13.334;2024-01-07T05:32:47;101435.34;;;-4.63;74.19
58821;BME280;70670;52.476;13.334;2024-01-07T05:35:13;101489.84;;;-4.33;74.89
58821;BME280;70670;52.476;13.334;2024-01-07T05:37:38;101507.34;;;-4.30;74.31
58821;BME280;70670;52.476;13.334;2024-01-07T05:40:04;101505.53;;;-4.34;74.66
58821;BME280;70670;52.476;13.334;2024-01-07T05:42:31;101492.25;;;-4.43;75.01
58821;BME280;70670;52.476;13.334;2024-01-07T05:44:57;101512.50;;;-4.33;75.58
58821;BME280;70670;52.476;13.334;2024-01-07T05:47:22;101434.13;;;-4.82;75.67
58821;BME280;70670;52.476;13.334;2024-01-07T05:49:48;101515.91;;;-4.37;75.52
58821;BME280;70670;52.476;13.334;2024-01-07T05:52:13;101503.56;;;-4.46;75.66
58821;BME280;70670;52.476;13.334;2024-01-07T05:54:40;101519.25;;;-4.45;76.08
58821;BME280;70670;52.476;13.334;2024-01-07T05:57:05;101508.81;;;-4.45;76.50
58821;BME280;70670;52.476;13.334;2024-01-07T05:59:31;101515.84;;;-4.40;75.97
58821;BME280;70670;52.476;13.334;2024-01-07T06:01:59;101514.09;;;-4.40;76.16
58821;BME280;70670;52.476;13.334;2024-01-07T06:04:25;101522.84;;;-4.39;75.68
58821;BME280;70670;52.476;13.334;2024-01-07T06:06:51;101514.88;;;-4.46;75.88
58821;BME280;70670;52.476;13.334;2024-01-07T06:09:16;101529.03;;;-4.34;76.20
58821;BME280;70670;52.476;13.334;2024-01-07T06:11:42;101533.41;;;-4.33;76.50
58821;BME280;70670;52.476;13.334;2024-01-07T06:14:08;101536.94;;;-4.31;76.34
58821;BME280;70670;52.476;13.334;2024-01-07T06:16:33;101475.44;;;-4.59;76.48
58821;BME280;70670;52.476;13.334;2024-01-07T06:18:59;101534.34;;;-4.30;76.26
58821;BME280;70670;52.476;13.334;2024-01-07T06:21:24;101526.44;;;-4.33;75.91
58821;BME280;70670;52.476;13.334;2024-01-07T06:23:50;101529.19;;;-4.27;75.54
58821;BME280;70670;52.476;13.334;2024-01-07T06:26:16;101546.69;;;-4.23;75.72
58821;BME280;70670;52.476;13.334;2024-01-07T06:28:41;101547.56;;;-4.22;75.84
58821;BME280;70670;52.476;13.334;2024-01-07T06:31:07;101492.97;;;-4.54;76.01
58821;BME280;70670;52.476;13.334;2024-01-07T06:33:33;101528.19;;;-4.33;75.38
58821;BME280;70670;52.476;13.334;2024-01-07T06:35:58;101508.72;;;-4.48;75.53
58821;BME280;70670;52.476;13.334;2024-01-07T06:38:25;101563.28;;;-4.19;75.73
58821;BME280;70670;52.476;13.334;2024-01-07T06:40:50;101548.22;;;-4.32;75.27
58821;BME280;70670;52.476;13.334;2024-01-07T06:43:16;101557.88;;;-4.28;75.21
58821;BME280;70670;52.476;13.334;2024-01-07T06:45:42;101573.69;;;-4.22;75.43
58821;BME280;70670;52.476;13.334;2024-01-07T06:48:09;101508.56;;;-4.57;75.60
58821;BME280;70670;52.476;13.334;2024-01-07T06:50:34;101522.56;;;-4.55;75.60
58821;BME280;70670;52.476;13.334;2024-01-07T06:53:00;101566.56;;;-4.29;75.13
58821;BME280;70670;52.476;13.334;2024-01-07T06:55:25;101570.16;;;-4.24;75.62
58821;BME280;70670;52.476;13.334;2024-01-07T06:57:51;101572.91;;;-4.16;75.80
58821;BME280;70670;52.476;13.334;2024-01-07T07:00:17;101560.63;;;-4.21;74.95
58821;BME280;70670;52.476;13.334;2024-01-07T07:02:43;101542.09;;;-4.34;75.13
58821;BME280;70670;52.476;13.334;2024-01-07T07:05:09;101577.31;;;-4.14;75.20
58821;BME280;70670;52.476;13.334;2024-01-07T07:07:34;101568.47;;;-4.22;75.99
58821;BME280;70670;52.476;13.334;2024-01-07T07:10:00;101570.22;;;-4.21;75.41
58821;BME280;70670;52.476;13.334;2024-01-07T07:12:26;101575.50;;;-4.18;76.40
58821;BME280;70670;52.476;13.334;2024-01-07T07:14:52;101578.97;;;-4.19;75.52
58821;BME280;70670;52.476;13.334;2024-01-07T07:17:17;101466.41;;;-4.75;75.69
58821;BME280;70670;52.476;13.334;2024-01-07T07:19:43;101534.84;;;-4.48;75.11
58821;BME280;70670;52.476;13.334;2024-01-07T07:22:09;101586.06;;;-4.12;75.73
58821;BME280;70670;52.476;13.334;2024-01-07T07:24:34;101599.25;;;-4.06;75.18
58821;BME280;70670;52.476;13.334;2024-01-07T07:27:00;101532.31;;;-4.45;74.71
58821;BME280;70670;52.476;13.334;2024-01-07T07:29:25;101605.41;;;-4.04;74.65
58821;BME280;70670;52.476;13.334;2024-01-07T07:31:51;101609.84;;;-3.98;74.95
58821;BME280;70670;52.476;13.334;2024-01-07T07:34:17;101603.75;;;-3.99;74.89
58821;BME280;70670;52.476;13.334;2024-01-07T07:36:42;101609.84;;;-4.00;75.32
58821;BME280;70670;52.476;13.334;2024-01-07T07:39:10;101488.47;;;-4.61;74.30
58821;BME280;70670;52.476;13.334;2024-01-07T07:41:36;101593.22;;;-4.02;74.18
58821;BME280;70670;52.476;13.334;2024-01-07T07:44:01;101623.13;;;-3.87;74.42
58821;BME280;70670;52.476;13.334;2024-01-07T07:46:27;101621.34;;;-3.88;74.60
58821;BME280;70670;52.476;13.334;2024-01-07T07:48:52;101559.81;;;-4.19;74.53
58821;BME280;70670;52.476;13.334;2024-01-07T07:51:18;101616.09;;;-3.91;74.41
58821;BME280;70670;52.476;13.334;2024-01-07T07:53:44;101631.13;;;-3.80;73.60
58821;BME280;70670;52.476;13.334;2024-01-07T07:56:09;101619.53;;;-3.92;73.57
58821;BME280;70670;52.476;13.334;2024-01-07T07:58:35;101634.56;;;-3.82;74.01
58821;BME280;70670;52.476;13.334;2024-01-07T08:01:00;101644.22;;;-3.77;73.72
58821;BME280;70670;52.476;13.334;2024-01-07T08:03:26;101635.56;;;-3.74;73.76
58821;BME280;70670;52.476;13.334;2024-01-07T08:05:52;101644.28;;;-3.74;73.48
58821;BME280;70670;52.476;13.334;2024-01-07T08:08:18;101634.66;;;-3.76;74.76
58821;BME280;70670;52.476;13.334;2024-01-07T08:10:43;101643.50;;;-3.69;73.97
58821;BME280;70670;52.476;13.334;2024-01-07T08:13:09;101629.56;;;-3.68;73.91
58821;BME280;70670;52.476;13.334;2024-01-07T08:15:35;101597.00;;;-3.87;73.89
58821;BME280;70670;52.476;13.334;2024-01-07T08:18:01;101643.63;;;-3.63;74.53
58821;BME280;70670;52.476;13.334;2024-01-07T08:20:27;101560.84;;;-4.08;74.82
58821;BME280;70670;52.476;13.334;2024-01-07T08:22:54;101634.09;;;-3.60;74.58
58821;BME280;70670;52.476;13.334;2024-01-07T08:25:20;101645.56;;;-3.52;74.25
58821;BME280;70670;52.476;13.334;2024-01-07T08:27:45;101648.22;;;-3.49;74.25
58821;BME280;70670;52.476;13.334;2024-01-07T08:30:11;101657.91;;;-3.43;73.38
58821;BME280;70670;52.476;13.334;2024-01-07T08:32:39;101653.50;;;-3.46;74.40
58821;BME280;70670;52.476;13.334;2024-01-07T08:35:05;101643.84;;;-3.51;73.95
58821;BME280;70670;52.476;13.334;2024-01-07T08:37:31;101670.19;;;-3.39;74.09
58821;BME280;70670;52.476;13.334;2024-01-07T08:39:56;101652.63;;;-3.46;74.05
58821;BME280;70670;52.476;13.334;2024-01-07T08:42:22;101593.59;;;-3.80;74.12
58821;BME280;70670;52.476;13.334;2024-01-07T08:44:48;101662.34;;;-3.40;74.09
58821;BME280;70670;52.476;13.334;2024-01-07T08:47:14;101662.44;;;-3.33;73.95
58821;BME280;70670;52.476;13.334;2024-01-07T08:49:40;101663.38;;;-3.29;74.49
58821;BME280;70670;52.476;13.334;2024-01-07T08:52:06;101655.56;;;-3.26;73.95
58821;BME280;70670;52.476;13.334;2024-01-07T08:54:32;101662.66;;;-3.20;74.22
58821;BME280;70670;52.476;13.334;2024-01-07T08:56:58;101653.91;;;-3.21;74.01
58821;BME280;70670;52.476;13.334;2024-01-07T08:59:24;101661.00;;;-3.14;74.64
58821;BME280;70670;52.476;13.334;2024-01-07T09:01:49;101662.75;;;-3.13;74.02
58821;BME280;70670;52.476;13.334;2024-01-07T09:04:15;101652.22;;;-3.19;73.79
58821;BME280;70670;52.476;13.334;2024-01-07T09:06:43;101662.88;;;-3.07;74.27
58821;BME280;70670;52.476;13.334;2024-01-07T09:09:09;101666.41;;;-3.03;73.45
58821;BME280;70670;52.476;13.334;2024-01-07T09:11:35;101654.13;;;-3.09;73.55
58821;BME280;70670;52.476;13.334;2024-01-07T09:14:02;101672.66;;;-2.97;74.15
58821;BME280;70670;52.476;13.334;2024-01-07T09:16:29;101661.19;;;-3.02;73.90
58821;BME280;70670;52.476;13.334;2024-01-07T09:18:55;101674.47;;;-2.91;73.79
58821;BME280;70670;52.476;13.334;2024-01-07T09:21:20;101665.78;;;-2.88;73.78
58821;BME280;70670;52.476;13.334;2024-01-07T09:23:48;101669.28;;;-2.86;74.37
58821;BME280;70670;52.476;13.334;2024-01-07T09:26:14;101668.34;;;-2.91;74.20
58821;BME280;70670;52.476;13.334;2024-01-07T09:28:39;101665.78;;;-2.88;74.08
58821;BME280;70670;52.476;13.334;2024-01-07T09:31:05;101682.56;;;-2.77;73.98
58821;BME280;70670;52.476;13.334;2024-01-07T09:33:31;101686.06;;;-2.74;74.06
58821;BME280;70670;52.476;13.334;2024-01-07T09:35:57;101675.63;;;-2.70;73.97
58821;BME280;70670;52.476;13.334;2024-01-07T09:38:22;101673.91;;;-2.70;73.80
58821;BME280;70670;52.476;13.334;2024-01-07T09:40:50;101680.06;;;-2.68;73.98
58821;BME280;70670;52.476;13.334;2024-01-07T09:43:16;101634.34;;;-2.88;74.57
58821;BME280;70670;52.476;13.334;2024-01-07T09:45:42;101679.28;;;-2.61;74.19
58821;BME280;70670;52.476;13.334;2024-01-07T09:48:11;101677.50;;;-2.62;74.38
58821;BME280;70670;52.476;13.334;2024-01-07T09:50:36;101659.84;;;-2.75;74.73
58821;BME280;70670;52.476;13.334;2024-01-07T09:53:02;101663.50;;;-2.64;75.16
58821;BME280;70670;52.476;13.334;2024-01-07T09:55:37;101663.47;;;-2.67;75.03
58821;BME280;70670;52.476;13.334;2024-01-07T09:58:05;101660.91;;;-2.62;75.62
58821;BME280;70670;52.476;13.334;2024-01-07T10:00:31;101667.06;;;-2.59;75.66
58821;BME280;70670;52.476;13.334;2024-01-07T10:02:57;101676.72;;;-2.56;76.33
58821;BME280;70670;52.476;13.334;2024-01-07T10:05:23;101652.00;;;-2.75;76.69
58821;BME280;70670;52.476;13.334;2024-01-07T10:07:48;101684.59;;;-2.55;77.29
58821;BME280;70670;52.476;13.334;2024-01-07T10:10:17;101617.72;;;-2.90;76.93
58821;BME280;70670;52.476;13.334;2024-01-07T10:12:46;101685.53;;;-2.51;76.84
58821;BME280;70670;52.476;13.334;2024-01-07T10:15:12;101681.16;;;-2.51;77.28
58821;BME280;70670;52.476;13.334;2024-01-07T10:17:41;101615.88;;;-2.98;77.11
58821;BME280;70670;52.476;13.334;2024-01-07T10:20:07;101686.34;;;-2.54;77.17
58821;BME280;70670;52.476;13.334;2024-01-07T10:22:37;101680.22;;;-2.54;76.98
58821;BME280;70670;52.476;13.334;2024-01-07T10:25:03;101680.22;;;-2.56;77.40
58821;BME280;70670;52.476;13.334;2024-01-07T10:27:29;101672.31;;;-2.59;77.02
58821;BME280;70670;52.476;13.334;2024-01-07T10:29:58;101678.41;;;-2.60;77.58
58821;BME280;70670;52.476;13.334;2024-01-07T10:32:24;101686.28;;;-2.61;77.67
58821;BME280;70670;52.476;13.334;2024-01-07T10:34:53;101677.53;;;-2.60;78.44
58821;BME280;70670;52.476;13.334;2024-01-07T10:37:21;101605.31;;;-3.02;78.80
58821;BME280;70670;52.476;13.334;2024-01-07T10:39:48;101649.44;;;-2.72;79.27
58821;BME280;70670;52.476;13.334;2024-01-07T10:42:16;101675.84;;;-2.57;79.42
58821;BME280;70670;52.476;13.334;2024-01-07T10:44:43;101680.22;;;-2.56;79.65
58821;BME280;70670;52.476;13.334;2024-01-07T10:47:10;101674.06;;;-2.58;79.42
58821;BME280;70670;52.476;13.334;2024-01-07T10:49:39;101676.72;;;-2.55;79.45
58821;BME280;70670;52.476;13.334;2024-01-07T10:52:07;101610.75;;;-2.90;79.32
58821;BME280;70670;52.476;13.334;2024-01-07T10:54:34;101684.69;;;-2.49;79.85
58821;BME280;70670;52.476;13.334;2024-01-07T10:57:09;101675.09;;;-2.47;80.60
58821;BME280;70670;52.476;13.334;2024-01-07T10:59:36;101661.06;;;-2.52;80.28
58821;BME280;70670;52.476;13.334;2024-01-07T11:02:02;101672.53;;;-2.42;80.32
58821;BME280;70670;52.476;13.334;2024-01-07T11:04:44;101665.59;;;-2.38;79.92
58821;BME280;70670;52.476;13.334;2024-01-07T11:07:34;101650.63;;;-2.45;80.14
58821;BME280;70670;52.476;13.334;2024-01-07T11:10:10;101646.31;;;-2.42;79.66
58821;BME280;70670;52.476;13.334;2024-01-07T11:12:37;101657.78;;;-2.35;79.44
58821;BME280;70670;52.476;13.334;2024-01-07T11:15:03;101666.50;;;-2.35;79.87
58821;BME280;70670;52.476;13.334;2024-01-07T11:19:59;101656.13;;;-2.29;80.20
58821;BME280;70670;52.476;13.334;2024-01-07T11:22:26;101664.03;;;-2.24;80.12
58821;BME280;70670;52.476;13.334;2024-01-07T11:24:59;101662.28;;;-2.25;79.55
58821;BME280;70670;52.476;13.334;2024-01-07T11:27:29;101670.16;;;-2.25;80.11
58821;BME280;70670;52.476;13.334;2024-01-07T11:29:57;101664.09;;;-2.21;79.38
58821;BME280;70670;52.476;13.334;2024-01-07T11:32:24;101655.25;;;-2.29;80.03
58821;BME280;70670;52.476;13.334;2024-01-07T11:34:54;101658.84;;;-2.21;80.14
58821;BME280;70670;52.476;13.334;2024-01-07T11:37:22;101644.78;;;-2.26;80.88
58821;BME280;70670;52.476;13.334;2024-01-07T11:39:54;101653.59;;;-2.21;80.43
58821;BME280;70670;52.476;13.334;2024-01-07T11:42:20;101634.22;;;-2.32;80.72
58821;BME280;70670;52.476;13.334;2024-01-07T11:44:47;101642.19;;;-2.23;81.46
58821;BME280;70670;52.476;13.334;2024-01-07T11:47:18;101635.25;;;-2.21;80.54
58821;BME280;70670;52.476;13.334;2024-01-07T11:49:44;101642.34;;;-2.11;81.19
58821;BME280;70670;52.476;13.334;2024-01-07T11:52:11;101604.56;;;-2.28;81.04
58821;BME280;70670;52.476;13.334;2024-01-07T11:54:40;101647.63;;;-2.06;81.27
58821;BME280;70670;52.476;13.334;2024-01-07T11:57:06;101638.88;;;-2.07;81.39
58821;BME280;70670;52.476;13.334;2024-01-07T11:59:33;101628.34;;;-2.13;81.45
58821;BME280;70670;52.476;13.334;2024-01-07T12:02:00;101578.16;;;-2.43;81.48
58821;BME280;70670;52.476;13.334;2024-01-07T12:04:26;101579.88;;;-2.45;81.88
58821;BME280;70670;52.476;13.334;2024-01-07T12:06:51;101542.97;;;-2.64;82.13
58821;BME280;70670;52.476;13.334;2024-01-07T12:09:17;101572.00;;;-2.49;82.51
58821;BME280;70670;52.476;13.334;2024-01-07T12:11:43;101572.88;;;-2.47;82.38
58821;BME280;70670;52.476;13.334;2024-01-07T12:14:09;101628.25;;;-2.19;83.43
58821;BME280;70670;52.476;13.334;2024-01-07T12:16:36;101593.97;;;-2.37;83.06
58821;BME280;70670;52.476;13.334;2024-01-07T12:19:01;101640.59;;;-2.12;83.32
58821;BME280;70670;52.476;13.334;2024-01-07T12:21:27;101562.34;;;-2.50;83.15
58821;BME280;70670;52.476;13.334;2024-01-07T12:23:55;101637.13;;;-2.08;83.27
58821;BME280;70670;52.476;13.334;2024-01-07T12:26:26;101627.44;;;-2.15;83.33
58821;BME280;70670;52.476;13.334;2024-01-07T12:28:57;101600.19;;;-2.28;83.23
58821;BME280;70670;52.476;13.334;2024-01-07T12:31:28;101619.56;;;-2.15;83.77
58821;BME280;70670;52.476;13.334;2024-01-07T12:33:54;101624.84;;;-2.10;83.70
58821;BME280;70670;52.476;13.334;2024-01-07T12:36:22;101647.63;;;-2.08;83.40
58821;BME280;70670;52.476;13.334;2024-01-07T12:38:48;101594.91;;;-2.31;84.05